createdAt,value
2018-09-14T00:07:53.110Z,50.56
2018-09-14T00:17:55.592Z,50.18
2018-09-14T00:27:58.136Z,50.44
2018-09-14T00:38:00.685Z,50.10
2018-09-14T00:48:03.212Z,49.55
2018-09-14T00:58:07.300Z,49.83
2018-09-14T01:08:09.731Z,49.77
2018-09-14T01:18:12.212Z,50.17
2018-09-14T01:28:14.860Z,49.64
2018-09-14T01:38:17.431Z,50.20
2018-09-14T01:48:20.006Z,50.54
2018-09-14T01:58:23.031Z,49.52
2018-09-14T02:08:25.375Z,49.89
2018-09-14T02:18:28.379Z,49.50
2018-09-14T02:28:31.045Z,49.81
2018-09-14T02:38:33.984Z,49.78
2018-09-14T02:48:37.654Z,50.51
2018-09-14T02:58:40.400Z,50.69
2018-09-14T03:08:43.096Z,50.56
2018-09-14T03:18:45.573Z,50.76
2018-09-14T03:28:48.144Z,50.08
2018-09-14T03:38:50.631Z,49.97
2018-09-14T03:48:53.146Z,49.62
2018-09-14T03:58:55.864Z,49.76
2018-09-14T04:08:58.405Z,50.43
2018-09-14T04:19:02.909Z,50.11
2018-09-14T04:29:05.545Z,49.64
2018-09-14T04:39:08.763Z,49.48
2018-09-14T04:49:11.442Z,49.57
2018-09-14T04:59:13.884Z,49.60
2018-09-14T05:09:16.508Z,49.62
2018-09-14T05:19:19.481Z,49.72
2018-09-14T05:29:22.010Z,50.35
2018-09-14T05:39:24.840Z,48.65
2018-09-14T05:49:27.381Z,49.26
2018-09-14T05:59:29.921Z,48.57
2018-09-14T06:09:32.410Z,49.31
2018-09-14T06:19:34.920Z,49.38
2018-09-14T06:29:37.552Z,49.35
2018-09-14T06:39:40.055Z,49.14
2018-09-14T06:49:42.503Z,49.10
2018-09-14T06:59:44.991Z,48.85
2018-09-14T07:09:47.483Z,49.58
2018-09-14T07:19:50.105Z,49.68
2018-09-14T07:29:52.615Z,50.54
2018-09-14T07:39:55.070Z,51.26
2018-09-14T07:49:58.504Z,51.02
2018-09-14T08:00:01.741Z,51.01
2018-09-14T08:10:04.932Z,51.16
2018-09-14T08:20:07.968Z,50.19
2018-09-14T08:30:11.128Z,51.76
2018-09-14T08:40:14.270Z,52.09
2018-09-14T08:50:17.301Z,51.79
2018-09-14T09:00:22.897Z,50.91
2018-09-14T09:10:33.258Z,50.83
2018-09-14T09:20:38.972Z,49.95
2018-09-14T09:30:42.246Z,50.35
2018-09-14T09:40:45.345Z,52.00
2018-09-14T09:50:48.604Z,51.86
2018-09-14T10:00:57.017Z,50.85
2018-09-14T10:11:00.037Z,49.84
2018-09-14T10:21:03.218Z,50.59
2018-09-14T10:31:06.633Z,51.24
2018-09-14T10:41:09.722Z,51.25
2018-09-14T10:51:15.068Z,52.96
2018-09-14T11:01:19.236Z,55.14
2018-09-14T11:11:22.390Z,54.08
2018-09-14T11:21:25.505Z,52.64
2018-09-14T11:31:29.099Z,52.29
2018-09-14T11:41:32.222Z,52.52
2018-09-14T11:51:36.164Z,51.95
2018-09-14T12:01:39.494Z,51.49
2018-09-14T12:11:42.772Z,52.03
2018-09-14T12:21:46.591Z,52.05
2018-09-14T12:31:49.761Z,52.52
2018-09-14T12:41:52.887Z,52.57
2018-09-14T12:51:56.055Z,52.72
2018-09-14T13:01:59.100Z,51.71
2018-09-14T13:12:02.400Z,51.52
2018-09-14T13:22:05.387Z,52.42
2018-09-14T13:32:08.408Z,53.19
2018-09-14T13:42:11.648Z,53.19
2018-09-14T13:52:14.695Z,51.07
2018-09-14T14:02:17.811Z,52.76
2018-09-14T14:12:20.945Z,52.59
2018-09-14T14:22:24.098Z,51.82
2018-09-14T14:32:27.301Z,50.87
2018-09-14T14:42:30.357Z,51.27
2018-09-14T14:52:33.636Z,50.80
2018-09-14T15:02:36.884Z,50.80
2018-09-14T15:12:40.068Z,50.29
2018-09-14T15:22:43.188Z,50.87
2018-09-14T15:32:46.301Z,51.73
2018-09-14T15:42:49.915Z,52.38
2018-09-14T15:52:53.218Z,52.85
2018-09-14T16:02:56.361Z,52.48
2018-09-14T16:12:59.766Z,52.13
2018-09-14T16:23:02.973Z,51.85
2018-09-14T16:33:06.347Z,52.89
2018-09-14T16:43:09.573Z,53.18
2018-09-14T16:53:12.977Z,53.63
2018-09-14T17:03:16.275Z,54.14
2018-09-14T17:13:19.602Z,53.89
2018-09-14T17:23:22.734Z,53.66
2018-09-14T17:33:25.930Z,54.00
2018-09-14T17:43:28.987Z,52.59
2018-09-14T17:53:32.092Z,52.56
2018-09-14T18:03:35.553Z,52.86
2018-09-14T18:13:38.516Z,52.89
2018-09-14T18:23:41.743Z,53.46
2018-09-14T18:33:44.988Z,53.92
2018-09-14T18:43:48.341Z,53.40
2018-09-14T18:53:51.711Z,53.64
2018-09-14T19:03:55.107Z,53.59
2018-09-14T19:13:58.323Z,53.73
2018-09-14T19:24:01.637Z,54.33
2018-09-14T19:34:05.224Z,54.16
2018-09-14T19:44:08.449Z,54.47
2018-09-14T19:54:11.692Z,53.77
2018-09-14T20:04:14.797Z,53.78
2018-09-14T20:14:17.893Z,51.96
2018-09-14T20:24:21.230Z,52.13
2018-09-14T20:34:24.396Z,51.76
2018-09-14T20:44:27.620Z,52.00
2018-09-14T20:54:30.849Z,51.61
2018-09-14T21:04:34.093Z,51.55
2018-09-14T21:14:37.302Z,50.23
2018-09-14T21:24:40.876Z,50.19
2018-09-14T21:34:44.385Z,50.07
2018-09-14T21:44:47.489Z,51.68
2018-09-14T21:54:51.004Z,50.59
2018-09-14T22:04:54.044Z,51.26
2018-09-14T22:14:57.353Z,51.64
2018-09-14T22:25:00.392Z,51.10
2018-09-14T22:35:03.497Z,51.06
2018-09-14T22:45:06.688Z,51.26
2018-09-14T22:55:10.429Z,51.44
2018-09-14T23:05:13.526Z,51.34
2018-09-14T23:15:16.675Z,50.68
2018-09-14T23:25:19.829Z,51.03
2018-09-14T23:35:22.997Z,50.53
2018-09-14T23:45:26.203Z,51.29
2018-09-14T23:55:29.324Z,51.30
